Time;durP1;ratioP1;P1;durP2;ratioP2;P2;SDS_P1;SDS_P2;PMS_P1;PMS_P2;Temp;Humidity;BMP_temperature;BMP_pressure;BME280_temperature;BME280_humidity;BME280_pressure;Samples;Min_cycle;Max_cycle;Signal;HPM_P1;HPM_P2
2024/03/09 00:00:16;;;;;;;47.13;22.70;;;;;;;8.57;47.88;101113.41;5028577;27;98275;-76
2024/03/09 00:02:43;;;;;;;43.17;22.13;;;;;;;8.67;47.79;101105.28;5026901;27;99007;-74
2024/03/09 00:05:10;;;;;;;41.47;21.63;;;;;;;8.63;47.95;101102.75;5026401;27;100029;-73
2024/03/09 00:07:36;;;;;;;43.92;22.42;;;;;;;8.83;47.34;101103.19;5026799;27;97130;-71
2024/03/09 00:10:05;;;;;;;45.00;21.23;;;;;;;8.61;48.00;101105.41;5025468;27;97503;-73
2024/03/09 00:12:34;;;;;;;47.78;23.02;;;;;;;8.62;48.12;101103.66;5024596;27;99571;-73
2024/03/09 00:15:02;;;;;;;42.85;22.38;;;;;;;8.69;48.07;101100.84;5023426;27;99048;-73
2024/03/09 00:17:29;;;;;;;49.28;23.33;;;;;;;8.56;48.46;101091.47;5025045;27;96921;-74
2024/03/09 00:19:58;;;;;;;41.33;21.73;;;;;;;8.70;48.32;101094.69;5022417;27;97025;-75
2024/03/09 00:22:25;;;;;;;45.78;22.67;;;;;;;8.88;47.85;101090.75;5024037;27;98864;-74
2024/03/09 00:24:52;;;;;;;45.75;23.40;;;;;;;9.05;47.46;101087.75;5019907;27;99057;-74
2024/03/09 00:27:24;;;;;;;48.15;23.75;;;;;;;8.68;48.23;101085.94;5032034;27;96798;-75
2024/03/09 00:29:54;;;;;;;45.15;22.75;;;;;;;8.81;48.01;101083.88;5026890;27;97293;-72
2024/03/09 00:32:21;;;;;;;49.35;24.40;;;;;;;8.71;48.44;101082.38;5018902;27;99112;-73
2024/03/09 00:34:48;;;;;;;45.92;22.95;;;;;;;8.84;47.96;101075.94;5027007;27;101765;-74
2024/03/09 00:37:14;;;;;;;46.05;22.92;;;;;;;8.90;47.95;101074.91;5017075;27;97462;-74
2024/03/09 00:39:42;;;;;;;46.50;23.75;;;;;;;8.84;48.12;101075.06;5029893;27;96862;-74
2024/03/09 00:42:09;;;;;;;46.30;23.40;;;;;;;8.75;48.35;101070.84;5030552;27;98892;-74
2024/03/09 00:44:36;;;;;;;53.30;24.92;;;;;;;8.59;49.17;101065.09;5031661;27;101063;-75
2024/03/09 00:47:04;;;;;;;52.88;24.52;;;;;;;8.51;49.39;101067.00;5026703;27;96764;-73
2024/03/09 00:49:30;;;;;;;52.00;24.10;;;;;;;8.47;49.68;101064.50;5030366;27;97002;-74
2024/03/09 00:51:58;;;;;;;47.60;24.25;;;;;;;8.67;48.85;101057.84;5031874;27;98840;-73
2024/03/09 00:54:25;;;;;;;47.67;23.85;;;;;;;8.64;49.20;101062.34;5028381;27;97778;-73
2024/03/09 00:56:52;;;;;;;51.72;24.85;;;;;;;8.64;49.21;101050.03;5021976;27;97322;-74
2024/03/09 00:59:19;;;;;;;49.10;24.92;;;;;;;8.49;49.63;101053.00;5024739;27;96887;-75
2024/03/09 01:01:47;;;;;;;49.40;24.10;;;;;;;8.45;50.03;101051.34;5020576;27;99307;-74
2024/03/09 01:04:15;;;;;;;47.85;24.45;;;;;;;8.54;49.85;101047.63;5031763;27;98892;-74
2024/03/09 01:06:41;;;;;;;51.28;25.30;;;;;;;8.71;49.29;101043.72;5030431;27;96701;-73
2024/03/09 01:09:08;;;;;;;48.97;24.80;;;;;;;8.52;49.96;101037.16;5024242;27;96885;-73
2024/03/09 01:11:35;;;;;;;57.92;26.73;;;;;;;8.23;50.50;101043.00;5027124;27;99298;-73
2024/03/09 01:14:02;;;;;;;58.20;27.10;;;;;;;8.25;51.18;101040.34;5030568;27;99328;-74
2024/03/09 01:16:29;;;;;;;51.42;25.80;;;;;;;8.57;50.03;101039.66;5022771;27;97773;-73
2024/03/09 01:18:56;;;;;;;51.83;26.13;;;;;;;8.29;50.63;101029.69;5024231;27;96840;-74
2024/03/09 01:21:28;;;;;;;52.88;25.92;;;;;;;8.33;50.84;101035.81;5022880;27;99247;-75
2024/03/09 01:23:55;;;;;;;52.35;26.02;;;;;;;8.13;51.55;101036.22;5028512;27;99432;-76
2024/03/09 01:26:24;;;;;;;51.90;26.13;;;;;;;8.16;51.49;101038.75;5023184;27;97113;-76
2024/03/09 01:28:50;;;;;;;52.63;25.77;;;;;;;8.11;51.74;101035.38;5022881;27;97792;-75
2024/03/09 01:31:18;;;;;;;53.00;25.13;;;;;;;8.08;51.66;101030.16;5025272;27;101882;-75
2024/03/09 01:33:45;;;;;;;56.75;27.08;;;;;;;8.21;51.55;101028.13;5025182;27;98208;-75
2024/03/09 01:36:12;;;;;;;52.05;25.35;;;;;;;8.19;51.60;101032.56;5022596;27;97101;-74
2024/03/09 01:38:40;;;;;;;55.33;27.60;;;;;;;8.20;51.21;101027.28;5022347;27;96828;-74
2024/03/09 01:41:06;;;;;;;54.80;27.25;;;;;;;8.26;51.80;101026.28;5026254;27;99192;-75
2024/03/09 01:43:33;;;;;;;57.45;26.83;;;;;;;8.31;51.39;101024.44;5018634;27;101354;-75
2024/03/09 01:46:05;;;;;;;57.60;27.50;;;;;;;8.27;51.37;101028.84;5024519;27;96982;-75
2024/03/09 01:48:32;;;;;;;54.13;25.98;;;;;;;8.17;51.91;101027.34;5023300;27;97280;-75
2024/03/09 01:50:59;;;;;;;53.60;26.45;;;;;;;8.21;51.66;101029.00;5023409;27;99828;-75
2024/03/09 01:53:26;;;;;;;59.53;26.77;;;;;;;8.20;51.91;101022.03;5031087;27;101590;-74
2024/03/09 01:55:58;;;;;;;53.38;27.20;;;;;;;8.04;52.11;101017.97;5026914;27;97335;-73
2024/03/09 01:58:25;;;;;;;55.28;26.67;;;;;;;8.11;52.06;101018.69;5024955;27;96744;-75
2024/03/09 02:00:56;;;;;;;58.55;27.45;;;;;;;8.23;51.92;101014.03;5025546;27;99707;-75
2024/03/09 02:03:23;;;;;;;57.30;27.33;;;;;;;8.27;51.57;101010.44;5016195;27;98846;-75
2024/03/09 02:05:50;;;;;;;54.78;27.40;;;;;;;8.42;51.44;101003.13;5018604;27;98520;-75
2024/03/09 02:08:17;;;;;;;60.10;27.95;;;;;;;8.44;51.19;101002.22;5025834;27;97101;-75
2024/03/09 02:10:44;;;;;;;58.83;27.77;;;;;;;8.38;51.38;101003.22;5023090;27;99362;-75
2024/03/09 02:13:11;;;;;;;59.80;29.25;;;;;;;8.36;51.42;100994.47;5022067;27;98879;-76
2024/03/09 02:15:38;;;;;;;62.35;28.83;;;;;;;8.27;51.62;100993.78;5023414;27;99368;-76
2024/03/09 02:18:06;;;;;;;59.15;27.95;;;;;;;8.11;52.16;100993.25;5021961;27;97784;-76
2024/03/09 02:20:32;;;;;;;61.20;28.42;;;;;;;7.98;52.75;100989.16;5026336;27;101410;-73
2024/03/09 02:23:00;;;;;;;54.80;27.17;;;;;;;7.90;52.91;100991.06;5019848;27;99429;-73
2024/03/09 02:25:29;;;;;;;66.15;29.25;;;;;;;8.05;52.72;100995.16;5025761;27;96789;-74
2024/03/09 02:27:58;;;;;;;60.80;29.48;;;;;;;7.88;52.85;100984.97;5022630;27;96854;-75
2024/03/09 02:30:25;;;;;;;59.80;29.50;;;;;;;7.86;53.59;100978.88;5025579;27;99500;-74
2024/03/09 02:32:53;;;;;;;61.05;28.40;;;;;;;7.95;53.31;100989.19;5017565;27;99565;-74
2024/03/09 02:35:20;;;;;;;60.92;27.63;;;;;;;7.64;53.96;100993.34;5022100;27;96769;-74
2024/03/09 02:37:46;;;;;;;62.17;28.25;;;;;;;7.82;53.77;100985.94;5023747;27;97168;-73
2024/03/09 02:40:13;;;;;;;60.20;29.42;;;;;;;7.89;53.77;100984.94;5023677;27;99542;-74
2024/03/09 02:43:04;;;;;;;58.58;29.90;;;;;;;8.01;53.33;100984.66;5024938;27;100000;-73
2024/03/09 02:45:28;;;;;;;59.67;29.13;;;;;;;7.93;53.46;100977.84;5028835;27;97676;-72
2024/03/09 02:47:55;;;;;;;66.10;29.80;;;;;;;7.82;53.63;100977.19;5022689;27;96770;-73
2024/03/09 02:50:23;;;;;;;57.92;29.17;;;;;;;8.16;53.07;100970.31;5025000;27;99119;-73
2024/03/09 02:52:49;;;;;;;62.92;30.65;;;;;;;8.13;52.65;100967.78;5029014;27;101566;-74
2024/03/09 02:55:16;;;;;;;61.80;29.80;;;;;;;8.02;53.02;100977.66;5028809;27;96758;-74
2024/03/09 02:57:43;;;;;;;63.50;30.75;;;;;;;7.97;53.37;100974.25;5027899;27;96792;-73
2024/03/09 03:00:12;;;;;;;57.90;29.27;;;;;;;7.93;53.38;100977.84;5028638;27;98103;-74
2024/03/09 03:06:00;;;;;;;59.80;29.20;;;;;;;7.58;54.46;100971.53;5013486;27;101100;-73
2024/03/09 03:08:26;;;;;;;64.35;30.38;;;;;;;7.86;53.84;100971.00;5022146;27;97804;-75
2024/03/09 03:10:53;;;;;;;62.53;29.20;;;;;;;7.70;54.55;100964.28;5023667;27;99058;-74
2024/03/09 03:13:20;;;;;;;63.17;28.70;;;;;;;7.92;54.00;100968.22;5024380;27;99420;-74
2024/03/09 03:15:47;;;;;;;65.03;31.00;;;;;;;7.79;54.28;100965.00;5028637;27;96831;-73
2024/03/09 03:18:14;;;;;;;64.20;29.70;;;;;;;7.89;53.88;100960.38;5019266;27;96909;-73
2024/03/09 03:20:40;;;;;;;68.57;31.02;;;;;;;7.95;54.00;100949.72;5027260;27;99753;-72
2024/03/09 03:23:07;;;;;;;60.95;29.73;;;;;;;7.97;53.79;100951.44;5026094;27;98935;-73
2024/03/09 03:25:34;;;;;;;65.03;29.73;;;;;;;8.21;53.00;100957.91;5027856;27;96605;-73
2024/03/09 03:28:01;;;;;;;62.17;29.90;;;;;;;8.10;53.16;100953.78;5030879;27;96833;-72
2024/03/09 03:30:29;;;;;;;65.20;31.40;;;;;;;8.15;52.88;100957.19;5027910;27;101130;-74
2024/03/09 03:32:55;;;;;;;68.72;30.15;;;;;;;8.10;53.25;100948.53;5027289;27;98740;-73
2024/03/09 03:35:24;;;;;;;62.22;29.48;;;;;;;8.16;53.19;100949.25;5022284;27;97053;-74
2024/03/09 03:37:53;;;;;;;69.40;31.25;;;;;;;8.20;52.85;100939.56;5019442;27;97561;-75
2024/03/09 03:40:22;;;;;;;69.28;32.67;;;;;;;8.08;53.44;100934.53;5023594;27;98969;-74
2024/03/09 03:42:49;;;;;;;69.50;32.13;;;;;;;8.24;53.12;100944.69;5031432;27;98974;-74
2024/03/09 03:45:15;;;;;;;72.85;32.33;;;;;;;8.11;53.28;100940.59;5028803;27;96824;-74
2024/03/09 03:47:43;;;;;;;72.30;32.75;;;;;;;7.97;53.43;100935.66;5025461;27;97891;-75
2024/03/09 03:50:09;;;;;;;70.72;32.25;;;;;;;8.07;53.41;100938.97;5027857;27;99234;-73
2024/03/09 03:52:38;;;;;;;69.38;31.05;;;;;;;8.10;53.23;100933.59;5024831;27;99032;-73
2024/03/09 03:55:08;;;;;;;67.57;31.50;;;;;;;8.03;53.58;100932.00;5026688;27;96831;-73
2024/03/09 03:57:35;;;;;;;68.78;32.80;;;;;;;8.00;53.49;100926.84;5019168;27;96884;-73
2024/03/09 04:00:01;;;;;;;69.35;32.50;;;;;;;7.85;53.80;100925.41;5026097;27;98929;-74
2024/03/09 04:02:29;;;;;;;65.35;32.00;;;;;;;7.82;54.32;100929.84;5025919;27;98901;-74
2024/03/09 04:04:57;;;;;;;71.60;30.70;;;;;;;7.82;54.22;100924.56;5017935;27;98681;-76
2024/03/09 04:07:24;;;;;;;74.18;33.88;;;;;;;7.88;54.04;100921.81;5019172;27;98629;-71
2024/03/09 04:09:51;;;;;;;68.05;31.58;;;;;;;7.84;54.11;100914.91;5018884;27;99065;-76
2024/03/09 04:12:18;;;;;;;67.72;31.55;;;;;;;7.79;54.40;100917.63;5023389;27;98775;-77
2024/03/09 04:14:47;;;;;;;71.72;31.77;;;;;;;7.80;54.67;100916.75;5028665;27;97187;-77
2024/03/09 04:17:14;;;;;;;75.20;33.53;;;;;;;7.81;54.61;100910.56;5026789;27;96901;-77
2024/03/09 04:19:42;;;;;;;71.82;32.58;;;;;;;7.94;54.18;100916.44;5029495;27;98844;-76
2024/03/09 04:22:12;;;;;;;70.07;33.42;;;;;;;7.72;54.71;100909.91;5026247;27;98274;-71
2024/03/09 04:24:43;;;;;;;72.88;33.90;;;;;;;7.84;54.29;100905.25;5030133;27;97075;-72
2024/03/09 04:27:10;;;;;;;74.85;33.22;;;;;;;7.45;55.40;100892.94;5021512;27;96824;-71
2024/03/09 04:29:36;;;;;;;69.65;32.47;;;;;;;7.66;54.90;100894.25;5026963;27;99514;-70
2024/03/09 04:32:03;;;;;;;74.78;33.38;;;;;;;7.66;54.81;100889.00;5026078;27;99220;-70
2024/03/09 04:34:33;;;;;;;71.68;32.72;;;;;;;7.63;55.20;100894.31;5026076;27;97163;-70
2024/03/09 04:37:00;;;;;;;72.93;35.00;;;;;;;7.61;55.01;100884.69;5019422;27;98478;-70
2024/03/09 04:39:29;;;;;;;70.40;32.30;;;;;;;7.67;55.09;100881.06;5023390;27;101363;-69
2024/03/09 04:41:55;;;;;;;74.80;33.25;;;;;;;7.52;55.73;100877.00;5022118;27;98843;-69
2024/03/09 04:44:23;;;;;;;72.32;32.67;;;;;;;7.73;55.08;100872.19;5026792;27;96787;-70
2024/03/09 04:46:52;;;;;;;78.00;34.97;;;;;;;7.57;55.48;100871.63;5027986;27;97013;-70
2024/03/09 04:49:19;;;;;;;73.95;34.40;;;;;;;7.58;55.48;100881.25;5031320;27;98649;-70
2024/03/09 04:51:45;;;;;;;72.47;34.47;;;;;;;7.64;55.27;100875.88;5025157;27;98846;-69
2024/03/09 04:54:12;;;;;;;73.00;33.28;;;;;;;7.54;55.56;100871.72;5025154;27;98260;-69
2024/03/09 04:56:40;;;;;;;70.03;33.20;;;;;;;7.73;55.03;100872.19;5025880;27;98250;-69
2024/03/09 04:59:06;;;;;;;75.30;33.20;;;;;;;7.74;55.10;100874.78;5021808;27;101731;-69
2024/03/09 05:01:33;;;;;;;73.15;33.55;;;;;;;7.54;55.76;100863.81;5027255;27;97535;-70
2024/03/09 05:03:59;;;;;;;72.40;33.03;;;;;;;7.69;55.37;100867.88;5023119;27;98632;-70
2024/03/09 05:06:29;;;;;;;79.60;35.22;;;;;;;7.77;55.17;100860.69;5021153;27;96797;-69
2024/03/09 05:08:57;;;;;;;74.05;34.85;;;;;;;7.87;54.83;100854.34;5025796;27;98551;-71
2024/03/09 05:11:23;;;;;;;70.47;33.20;;;;;;;7.79;54.87;100853.63;5022922;27;101037;-70
2024/03/09 05:13:53;;;;;;;82.68;36.30;;;;;;;7.71;54.98;100855.56;5019998;27;96771;-70
2024/03/09 05:16:19;;;;;;;75.53;35.72;;;;;;;7.81;55.11;100851.84;5022171;28;98517;-72
2024/03/09 05:18:46;;;;;;;78.10;33.97;;;;;;;7.92;54.54;100855.09;5022405;27;98791;-70
2024/03/09 05:21:16;;;;;;;70.03;33.42;;;;;;;7.74;55.25;100856.38;5025395;27;100520;-69
2024/03/09 05:23:42;;;;;;;83.80;35.95;;;;;;;7.68;55.35;100860.91;5024784;27;96927;-71
2024/03/09 05:26:10;;;;;;;74.65;33.53;;;;;;;7.61;55.67;100868.06;5027907;27;98943;-70
2024/03/09 05:28:37;;;;;;;77.43;34.35;;;;;;;7.63;55.76;100860.13;5023625;27;98720;-70
2024/03/09 05:31:05;;;;;;;79.93;33.40;;;;;;;7.59;56.03;100860.19;5022875;27;99240;-69
2024/03/09 05:33:31;;;;;;;79.40;35.85;;;;;;;7.55;56.00;100855.88;5021418;27;97843;-70
2024/03/09 05:35:58;;;;;;;76.10;35.58;;;;;;;7.53;56.52;100852.44;5028426;27;97209;-70
2024/03/09 05:38:24;;;;;;;86.50;37.35;;;;;;;7.50;56.32;100857.75;5024489;27;97683;-71
2024/03/09 05:40:51;;;;;;;73.70;32.75;;;;;;;7.55;56.33;100855.88;5033047;27;101698;-71
2024/03/09 05:43:17;;;;;;;78.03;35.30;;;;;;;7.73;55.83;100859.03;5021403;27;96850;-71
2024/03/09 05:45:43;;;;;;;76.43;35.97;;;;;;;7.57;56.21;100853.22;5020945;27;97326;-71
2024/03/09 05:48:11;;;;;;;78.88;35.65;;;;;;;7.69;55.93;100857.34;5020653;27;98980;-70
2024/03/09 05:50:38;;;;;;;79.63;35.88;;;;;;;7.58;56.60;100847.06;5022109;27;98616;-71
2024/03/09 05:53:05;;;;;;;80.57;36.15;;;;;;;7.72;55.91;100854.66;5022378;27;96816;-70
2024/03/09 05:55:31;;;;;;;78.80;35.78;;;;;;;7.58;56.32;100847.06;5024021;27;97210;-70
2024/03/09 05:57:58;;;;;;;81.53;36.42;;;;;;;7.51;56.52;100848.97;5024435;27;100980;-70
2024/03/09 06:00:27;;;;;;;76.43;35.05;;;;;;;7.71;56.09;100842.41;5025432;27;101451;-70
2024/03/09 06:02:53;;;;;;;78.25;35.55;;;;;;;7.73;55.85;100845.88;5026711;27;97582;-70
2024/03/09 06:05:22;;;;;;;74.85;35.03;;;;;;;7.77;55.55;100851.03;5027184;27;98216;-71
2024/03/09 06:07:49;;;;;;;81.15;35.42;;;;;;;7.57;56.10;100848.84;5030008;27;100979;-71
2024/03/09 06:10:18;;;;;;;82.13;36.20;;;;;;;7.69;56.09;100846.81;5024243;27;98081;-71
2024/03/09 06:12:45;;;;;;;77.28;34.42;;;;;;;7.68;56.05;100840.69;5030481;27;97314;-71
2024/03/09 06:15:14;;;;;;;81.63;35.05;;;;;;;7.57;56.46;100842.72;5030187;27;97934;-71
2024/03/09 06:17:41;;;;;;;79.85;35.13;;;;;;;7.63;56.72;100836.44;5034631;27;99238;-69
2024/03/09 06:20:09;;;;;;;74.32;34.42;;;;;;;7.77;56.09;100834.38;5029213;27;99071;-70
2024/03/09 06:22:41;;;;;;;78.45;34.75;;;;;;;7.73;56.33;100833.59;5028588;27;98349;-69
2024/03/09 06:25:09;;;;;;;75.18;35.22;;;;;;;7.92;55.66;100839.31;5020851;27;97160;-72
2024/03/09 06:27:35;;;;;;;75.20;34.58;;;;;;;8.06;55.46;100841.63;5035720;27;98878;-70
2024/03/09 06:30:03;;;;;;;74.85;34.55;;;;;;;8.07;55.10;100844.22;5032010;27;99263;-69
2024/03/09 06:32:29;;;;;;;70.85;34.13;;;;;;;8.16;54.56;100843.97;5031304;27;96723;-69
2024/03/09 06:34:56;;;;;;;72.20;34.47;;;;;;;8.14;54.59;100845.78;5031014;27;97334;-70
2024/03/09 06:37:23;;;;;;;78.22;35.47;;;;;;;8.15;54.71;100831.72;5031727;27;97085;-71
2024/03/09 06:39:51;;;;;;;73.13;34.28;;;;;;;8.24;54.47;100842.03;5015166;27;98185;-70
2024/03/09 06:42:18;;;;;;;74.63;34.38;;;;;;;8.17;54.43;100845.72;5036807;27;97309;-71
2024/03/09 06:44:45;;;;;;;71.03;34.83;;;;;;;8.39;53.93;100843.47;5028061;27;96821;-70
2024/03/09 06:47:13;;;;;;;74.95;35.50;;;;;;;8.38;53.72;100853.13;5020735;27;99214;-70
2024/03/09 06:49:40;;;;;;;81.85;35.90;;;;;;;8.32;54.10;100837.47;5028199;27;99388;-75
2024/03/09 06:52:07;;;;;;;82.32;36.40;;;;;;;8.37;54.30;100846.13;5022567;27;97163;-74
2024/03/09 06:54:33;;;;;;;77.10;34.60;;;;;;;8.62;53.59;100837.59;5028712;27;97619;-74
2024/03/09 06:57:01;;;;;;;77.70;35.65;;;;;;;8.74;52.85;100834.63;5024847;27;101464;-74
2024/03/09 06:59:27;;;;;;;74.20;35.05;;;;;;;8.69;52.85;100833.91;5021694;27;98578;-74
2024/03/09 07:01:57;;;;;;;80.68;35.20;;;;;;;8.92;52.43;100839.44;5023396;27;100110;-73
2024/03/09 07:04:24;;;;;;;76.07;36.28;;;;;;;8.83;52.52;100837.03;5028004;27;96864;-73
2024/03/09 07:06:51;;;;;;;78.15;34.13;;;;;;;9.09;52.31;100833.69;5031435;27;99439;-73
2024/03/09 07:09:17;;;;;;;76.32;34.75;;;;;;;9.12;51.71;100831.81;5027502;27;101387;-73
2024/03/09 07:11:44;;;;;;;72.18;34.55;;;;;;;9.09;51.93;100831.91;5023617;27;99295;-74
2024/03/09 07:14:12;;;;;;;81.53;35.00;;;;;;;9.03;51.86;100828.59;5024738;27;96776;-72
2024/03/09 07:16:38;;;;;;;75.28;35.00;;;;;;;9.09;51.93;100834.53;5023653;27;99106;-72
2024/03/09 07:19:05;;;;;;;75.88;35.05;;;;;;;9.03;52.20;100834.72;5017964;27;98817;-72
2024/03/09 07:21:33;;;;;;;73.72;35.50;;;;;;;9.17;51.57;100826.44;5024465;27;98002;-73
2024/03/09 07:24:00;;;;;;;74.68;34.38;;;;;;;9.24;51.20;100827.97;5025975;27;96931;-71
2024/03/09 07:26:27;;;;;;;75.90;34.70;;;;;;;9.28;51.35;100823.47;5024080;27;101260;-74
2024/03/09 07:28:54;;;;;;;74.43;36.00;;;;;;;9.22;51.46;100821.00;5028099;27;99799;-71
2024/03/09 07:31:22;;;;;;;71.78;34.20;;;;;;;9.22;51.85;100813.97;5021008;27;99970;-71
2024/03/09 07:33:50;;;;;;;72.78;32.90;;;;;;;9.47;51.20;100820.25;5020905;27;96830;-71
2024/03/09 07:36:17;;;;;;;73.07;34.08;;;;;;;9.78;50.15;100801.69;5022664;27;99018;-73
2024/03/09 07:38:45;;;;;;;85.13;36.40;;;;;;;9.93;49.46;100809.16;5023655;27;101477;-73
2024/03/09 07:41:12;;;;;;;71.05;33.42;;;;;;;9.91;49.59;100794.28;5007490;27;98779;-72
2024/03/09 07:43:39;;;;;;;72.22;34.65;;;;;;;10.03;49.18;100800.94;5019865;27;97449;-71
2024/03/09 07:46:06;;;;;;;74.80;33.17;;;;;;;10.05;49.03;100796.47;5023361;27;98410;-73
2024/03/09 07:48:34;;;;;;;75.30;33.75;;;;;;;9.79;49.45;100805.22;5018911;27;99245;-73
2024/03/09 07:51:01;;;;;;;67.30;32.53;;;;;;;10.00;48.89;100820.38;5016827;27;96858;-74
2024/03/09 07:53:28;;;;;;;78.07;34.90;;;;;;;10.31;48.71;100822.91;5017531;27;97431;-73
2024/03/09 07:55:54;;;;;;;71.93;33.05;;;;;;;10.47;48.58;100824.13;5025691;27;99471;-74
2024/03/09 07:58:21;;;;;;;73.90;33.30;;;;;;;10.36;48.55;100815.72;5021343;27;100304;-75
2024/03/09 08:00:49;;;;;;;71.43;34.15;;;;;;;10.47;48.09;100813.56;5024489;27;97276;-74
2024/03/09 08:03:17;;;;;;;66.25;31.75;;;;;;;10.38;48.13;100806.81;5026177;27;96891;-73
2024/03/09 08:05:44;;;;;;;64.78;31.20;;;;;;;10.45;48.18;100817.16;5030262;27;98282;-73
2024/03/09 08:08:11;;;;;;;76.95;34.70;;;;;;;10.59;47.64;100813.16;5021051;27;98813;-74
2024/03/09 08:10:41;;;;;;;67.30;33.78;;;;;;;10.90;46.80;100807.63;5022554;27;97059;-73
2024/03/09 08:13:10;;;;;;;68.40;31.90;;;;;;;11.27;45.79;100799.25;5023218;27;97669;-73
2024/03/09 08:15:36;;;;;;;67.22;32.40;;;;;;;11.26;45.43;100796.66;5030661;27;99280;-70
2024/03/09 08:18:07;;;;;;;63.95;32.17;;;;;;;11.37;45.32;100794.44;5019222;27;98766;-71
2024/03/09 08:20:33;;;;;;;67.53;34.03;;;;;;;11.36;45.63;100796.22;5029510;27;97762;-70
2024/03/09 08:23:01;;;;;;;69.55;34.03;;;;;;;11.53;45.24;100785.88;5022593;27;98046;-71
2024/03/09 08:25:28;;;;;;;68.25;33.38;;;;;;;11.81;44.35;100784.84;5023297;27;101808;-70
2024/03/09 08:27:55;;;;;;;69.10;32.42;;;;;;;11.82;44.31;100781.25;5021454;27;99160;-72
2024/03/09 08:30:21;;;;;;;71.35;34.78;;;;;;;11.73;44.38;100776.28;5030104;27;96993;-72
2024/03/09 08:32:52;;;;;;;67.28;31.70;;;;;;;11.72;44.36;100761.34;5020877;27;102092;-71
2024/03/09 08:35:19;;;;;;;67.65;32.58;;;;;;;11.46;45.03;100757.94;5022767;27;102088;-71
2024/03/09 08:37:50;;;;;;;70.50;34.15;;;;;;;11.46;45.37;100763.22;5018547;27;99059;-71
2024/03/09 08:40:19;;;;;;;61.05;32.58;;;;;;;11.70;45.06;100756.09;5023059;27;97047;-72
2024/03/09 08:42:48;;;;;;;70.15;33.63;;;;;;;11.98;43.85;100753.22;5024777;27;97303;-71
2024/03/09 08:45:15;;;;;;;64.22;31.67;;;;;;;11.98;43.69;100755.88;5015693;27;98863;-70
2024/03/09 08:47:42;;;;;;;61.65;31.52;;;;;;;12.05;43.77;100746.75;5024069;27;98892;-70
2024/03/09 08:50:11;;;;;;;61.65;31.15;;;;;;;12.17;43.46;100746.25;5029630;27;97608;-70
2024/03/09 08:52:37;;;;;;;69.05;32.92;;;;;;;12.65;42.59;100737.13;5027441;27;97659;-70
2024/03/09 08:55:07;;;;;;;64.97;31.63;;;;;;;12.59;42.31;100740.91;5040530;27;101058;-71
2024/03/09 08:57:35;;;;;;;69.63;32.45;;;;;;;12.48;42.44;100743.13;5020497;27;98810;-70
2024/03/09 09:00:05;;;;;;;60.97;31.70;;;;;;;12.61;42.40;100730.22;5020809;27;96881;-70
2024/03/09 09:02:32;;;;;;;58.65;31.52;;;;;;;12.76;42.50;100733.06;5021130;27;97892;-71
2024/03/09 09:04:59;;;;;;;60.95;30.25;;;;;;;13.14;41.77;100728.69;5019290;27;99376;-70
2024/03/09 09:07:25;;;;;;;57.53;31.48;;;;;;;12.98;41.80;100724.13;5020103;27;99633;-71
2024/03/09 09:09:52;;;;;;;63.95;32.47;;;;;;;12.99;41.66;100737.34;5014952;27;97638;-70
2024/03/09 09:12:19;;;;;;;56.88;29.70;;;;;;;13.15;41.66;100717.16;5016820;27;97889;-71
2024/03/09 09:14:47;;;;;;;58.92;31.23;;;;;;;13.21;41.14;100716.00;5025841;27;98944;-71
2024/03/09 09:17:13;;;;;;;60.40;30.60;;;;;;;13.15;41.47;100710.97;5025969;27;98808;-70
2024/03/09 09:19:40;;;;;;;59.85;31.02;;;;;;;13.37;41.02;100710.84;5027695;27;96969;-70
2024/03/09 09:22:06;;;;;;;55.55;29.75;;;;;;;12.71;42.46;100705.91;5022392;27;96967;-72
2024/03/09 09:24:33;;;;;;;60.53;29.60;;;;;;;13.01;42.11;100710.72;5027012;27;98939;-70
2024/03/09 09:26:59;;;;;;;60.58;30.88;;;;;;;12.88;42.17;100710.41;5030506;27;99320;-71
2024/03/09 09:29:28;;;;;;;60.72;31.50;;;;;;;12.78;42.48;100702.03;5018693;27;98344;-70
2024/03/09 09:31:56;;;;;;;56.97;29.92;;;;;;;12.92;42.46;100698.75;5026511;27;97352;-71
2024/03/09 09:34:23;;;;;;;59.67;31.00;;;;;;;12.94;42.19;100691.56;5026756;27;99036;-71
2024/03/09 09:36:52;;;;;;;64.22;32.13;;;;;;;13.03;42.34;100693.81;5023129;27;98871;-71
2024/03/09 09:39:20;;;;;;;57.97;29.45;;;;;;;13.36;41.78;100685.22;5020936;27;98354;-72
2024/03/09 09:41:49;;;;;;;60.85;29.65;;;;;;;13.56;41.23;100683.34;5027132;27;96968;-71
2024/03/09 09:44:17;;;;;;;55.03;30.58;;;;;;;13.84;40.68;100671.34;5027255;27;98956;-71
2024/03/09 09:46:44;;;;;;;57.78;30.55;;;;;;;13.70;40.63;100664.06;5020900;27;99368;-70
2024/03/09 09:49:12;;;;;;;52.03;27.77;;;;;;;13.70;40.86;100671.19;5022311;27;97009;-70
2024/03/09 09:51:41;;;;;;;56.83;29.55;;;;;;;13.66;40.85;100665.16;5019587;27;97023;-71
2024/03/09 09:54:09;;;;;;;61.38;30.95;;;;;;;13.85;40.60;100665.94;5021746;27;102062;-70
2024/03/09 09:56:35;;;;;;;55.65;29.15;;;;;;;13.51;41.24;100656.16;5023485;27;101071;-70
2024/03/09 09:59:02;;;;;;;57.97;28.20;;;;;;;13.86;40.87;100651.72;5023077;27;98796;-71
2024/03/09 10:01:28;;;;;;;59.33;29.55;;;;;;;13.78;40.86;100651.28;5019004;27;97736;-71
2024/03/09 10:03:55;;;;;;;55.00;29.67;;;;;;;14.10;40.44;100652.31;5020102;27;101390;-70
2024/03/09 10:06:24;;;;;;;55.42;29.60;;;;;;;14.19;40.00;100648.28;5020229;27;97507;-70
2024/03/09 10:08:52;;;;;;;58.47;29.27;;;;;;;14.49;39.43;100644.06;5010656;27;99115;-71
2024/03/09 10:11:20;;;;;;;53.95;28.85;;;;;;;14.63;39.05;100638.88;5018832;27;97600;-71
2024/03/09 10:13:49;;;;;;;57.35;29.00;;;;;;;14.60;38.99;100643.50;5017018;27;99467;-70
2024/03/09 10:16:17;;;;;;;52.70;28.30;;;;;;;14.68;38.69;100635.97;5016449;27;100762;-71
2024/03/09 10:18:45;;;;;;;55.40;28.92;;;;;;;14.74;38.73;100638.28;5018092;27;99014;-70
2024/03/09 10:21:13;;;;;;;55.42;29.90;;;;;;;14.24;39.50;100638.31;5018075;27;97915;-70
2024/03/09 10:23:43;;;;;;;51.25;28.48;;;;;;;14.81;38.62;100638.81;5021103;27;103148;-72
2024/03/09 10:26:10;;;;;;;50.42;28.25;;;;;;;14.73;38.76;100645.41;5019357;27;98729;-69
2024/03/09 10:28:37;;;;;;;54.10;28.42;;;;;;;14.75;38.60;100627.56;5019631;27;97664;-75
2024/03/09 10:31:05;;;;;;;53.30;28.77;;;;;;;14.85;38.53;100632.38;5022265;27;97192;-75
2024/03/09 10:33:34;;;;;;;51.15;27.10;;;;;;;14.67;39.24;100619.16;5019520;27;98777;-71
2024/03/09 10:36:01;;;;;;;51.53;28.20;;;;;;;14.79;38.52;100622.94;5022488;27;100179;-74
2024/03/09 10:38:30;;;;;;;52.97;28.73;;;;;;;14.63;38.78;100622.94;5021784;27;97215;-74
2024/03/09 10:40:58;;;;;;;50.25;27.83;;;;;;;14.38;39.25;100619.84;5023815;27;98494;-74
2024/03/09 10:43:25;;;;;;;53.20;29.00;;;;;;;14.41;39.34;100610.84;5010457;27;98852;-74
2024/03/09 10:45:54;;;;;;;53.17;27.67;;;;;;;14.51;39.16;100607.59;5020317;27;99305;-74
2024/03/09 10:48:22;;;;;;;52.75;28.80;;;;;;;14.67;39.15;100608.50;5022980;27;97547;-73
2024/03/09 10:51:04;;;;;;;57.65;27.92;;;;;;;14.73;38.76;100605.50;5024582;27;97340;-74
2024/03/09 10:53:42;;;;;;;50.33;28.38;;;;;;;14.83;38.52;100592.59;5022550;27;99996;-74
2024/03/09 10:56:19;;;;;;;46.50;26.65;;;;;;;14.50;38.78;100594.41;5022840;27;98148;-73
2024/03/09 10:58:46;;;;;;;49.05;26.98;;;;;;;14.42;39.25;100588.66;5029053;27;98146;-73
2024/03/09 11:01:15;;;;;;;49.03;28.20;;;;;;;14.33;39.62;100588.16;5025990;27;97912;-73
2024/03/09 11:03:48;;;;;;;49.85;27.20;;;;;;;14.56;39.04;100584.31;5022026;27;99220;-73
2024/03/09 11:06:17;;;;;;;50.20;26.77;;;;;;;14.68;38.78;100582.78;5023459;27;101892;-73
2024/03/09 11:08:49;;;;;;;46.00;25.23;;;;;;;14.64;38.90;100578.56;5021379;27;97025;-76
2024/03/09 11:11:18;;;;;;;46.67;26.45;;;;;;;14.77;38.83;100576.09;5022597;27;97545;-73
2024/03/09 11:13:47;;;;;;;50.53;26.77;;;;;;;14.74;38.72;100575.31;5019842;27;99847;-73
2024/03/09 11:16:14;;;;;;;50.75;25.90;;;;;;;14.77;38.60;100571.63;5019676;27;101278;-74
2024/03/09 11:18:43;;;;;;;49.92;25.83;;;;;;;14.84;38.65;100572.13;5022325;27;96812;-73